sensor_id;sensor_type;location;lat;lon;timestamp;pressure;altitude;pressure_sealevel;temperature;humidity
36454;BME280;22478;51.740;-1.314;2023-03-12T00:01:16;99298.83;;;2.21;100.00
36454;BME280;22478;51.740;-1.314;2023-03-12T00:03:45;99303.75;;;0.11;100.00
36454;BME280;22478;51.740;-1.314;2023-03-12T00:06:12;99302.65;;;1.82;100.00
36454;BME280;22478;51.740;-1.314;2023-03-12T00:08:39;99292.59;;;2.27;100.00
36454;BME280;22478;51.740;-1.314;2023-03-12T00:11:08;99294.43;;;0.35;100.00
36454;BME280;22478;51.740;-1.314;2023-03-12T00:13:36;99293.82;;;2.80;100.00
36454;BME280;22478;51.740;-1.314;2023-03-12T00:16:07;99292.55;;;2.85;100.00
36454;BME280;22478;51.740;-1.314;2023-03-12T00:18:34;99284.50;;;3.41;100.00
36454;BME280;22478;51.740;-1.314;2023-03-12T00:21:02;99292.86;;;2.90;100.00
36454;BME280;22478;51.740;-1.314;2023-03-12T00:23:31;99294.37;;;3.29;100.00
36454;BME280;22478;51.740;-1.314;2023-03-12T00:26:00;99309.46;;;1.52;100.00
36454;BME280;22478;51.740;-1.314;2023-03-12T00:28:27;99293.19;;;3.06;100.00
36454;BME280;22478;51.740;-1.314;2023-03-12T00:30:54;99294.31;;;3.93;100.00
36454;BME280;22478;51.740;-1.314;2023-03-12T00:33:21;99301.34;;;2.19;100.00
36454;BME280;22478;51.740;-1.314;2023-03-12T00:35:49;99296.08;;;3.69;100.00
36454;BME280;22478;51.740;-1.314;2023-03-12T00:38:16;99302.54;;;2.00;100.00
36454;BME280;22478;51.740;-1.314;2023-03-12T00:40:44;99301.08;;;3.76;100.00
36454;BME280;22478;51.740;-1.314;2023-03-12T00:43:11;99300.84;;;3.14;100.00
36454;BME280;22478;51.740;-1.314;2023-03-12T00:45:39;99309.03;;;3.36;100.00
36454;BME280;22478;51.740;-1.314;2023-03-12T00:48:07;99304.46;;;2.99;100.00
36454;BME280;22478;51.740;-1.314;2023-03-12T00:50:35;99308.23;;;2.76;100.00
36454;BME280;22478;51.740;-1.314;2023-03-12T00:53:02;99301.78;;;3.69;100.00
36454;BME280;22478;51.740;-1.314;2023-03-12T00:55:29;99302.42;;;3.77;100.00
36454;BME280;22478;51.740;-1.314;2023-03-12T00:57:57;99307.37;;;3.03;100.00
36454;BME280;22478;51.740;-1.314;2023-03-12T01:00:24;99320.12;;;2.95;100.00
36454;BME280;22478;51.740;-1.314;2023-03-12T01:02:51;99313.03;;;3.81;100.00
36454;BME280;22478;51.740;-1.314;2023-03-12T01:05:19;99311.52;;;2.74;100.00
36454;BME280;22478;51.740;-1.314;2023-03-12T01:07:46;99306.69;;;4.14;100.00
36454;BME280;22478;51.740;-1.314;2023-03-12T01:10:17;99301.73;;;3.66;100.00
36454;BME280;22478;51.740;-1.314;2023-03-12T01:12:45;99300.90;;;3.27;100.00
36454;BME280;22478;51.740;-1.314;2023-03-12T01:15:14;99314.42;;;1.57;100.00
36454;BME280;22478;51.740;-1.314;2023-03-12T01:17:42;99313.89;;;1.95;100.00
36454;BME280;22478;51.740;-1.314;2023-03-12T01:20:10;99313.91;;;1.62;100.00
36454;BME280;22478;51.740;-1.314;2023-03-12T01:22:39;99312.45;;;2.45;100.00
36454;BME280;22478;51.740;-1.314;2023-03-12T01:25:06;99321.04;;;2.05;100.00
36454;BME280;22478;51.740;-1.314;2023-03-12T01:27:34;99299.98;;;4.92;100.00
36454;BME280;22478;51.740;-1.314;2023-03-12T01:30:03;99300.06;;;2.42;100.00
36454;BME280;22478;51.740;-1.314;2023-03-12T01:32:31;99304.76;;;2.40;100.00
36454;BME280;22478;51.740;-1.314;2023-03-12T01:34:59;99300.44;;;3.07;100.00
36454;BME280;22478;51.740;-1.314;2023-03-12T01:37:26;99308.91;;;1.49;100.00
36454;BME280;22478;51.740;-1.314;2023-03-12T01:39:54;99304.60;;;3.02;100.00
36454;BME280;22478;51.740;-1.314;2023-03-12T01:42:21;99292.15;;;3.68;100.00
36454;BME280;22478;51.740;-1.314;2023-03-12T01:44:51;99302.87;;;3.10;100.00
36454;BME280;22478;51.740;-1.314;2023-03-12T01:47:19;99307.19;;;2.38;100.00
36454;BME280;22478;51.740;-1.314;2023-03-12T01:49:47;99303.38;;;2.24;100.00
36454;BME280;22478;51.740;-1.314;2023-03-12T01:52:18;99309.92;;;1.67;100.00
36454;BME280;22478;51.740;-1.314;2023-03-12T01:54:50;99312.74;;;1.30;100.00
36454;BME280;22478;51.740;-1.314;2023-03-12T01:57:22;99299.48;;;3.23;100.00
36454;BME280;22478;51.740;-1.314;2023-03-12T01:59:54;99311.66;;;1.43;100.00
36454;BME280;22478;51.740;-1.314;2023-03-12T02:02:23;99310.19;;;1.54;100.00
36454;BME280;22478;51.740;-1.314;2023-03-12T02:04:52;99315.22;;;0.70;100.00
36454;BME280;22478;51.740;-1.314;2023-03-12T02:07:23;99311.80;;;1.36;100.00
36454;BME280;22478;51.740;-1.314;2023-03-12T02:09:51;99298.66;;;2.68;100.00
36454;BME280;22478;51.740;-1.314;2023-03-12T02:12:18;99295.58;;;2.88;100.00
36454;BME280;22478;51.740;-1.314;2023-03-12T02:14:46;99293.81;;;3.02;100.00
36454;BME280;22478;51.740;-1.314;2023-03-12T02:17:13;99297.57;;;2.92;100.00
36454;BME280;22478;51.740;-1.314;2023-03-12T02:19:46;99298.45;;;3.14;100.00
36454;BME280;22478;51.740;-1.314;2023-03-12T02:22:15;99299.00;;;3.42;100.00
36454;BME280;22478;51.740;-1.314;2023-03-12T02:24:46;99308.40;;;2.29;100.00
36454;BME280;22478;51.740;-1.314;2023-03-12T02:27:17;99313.13;;;0.61;100.00
36454;BME280;22478;51.740;-1.314;2023-03-12T02:29:45;99316.39;;;0.51;100.00
36454;BME280;22478;51.740;-1.314;2023-03-12T02:32:19;99305.17;;;3.14;100.00
36454;BME280;22478;51.740;-1.314;2023-03-12T02:34:47;99307.91;;;3.04;100.00
36454;BME280;22478;51.740;-1.314;2023-03-12T02:37:15;99316.08;;;2.35;100.00
36454;BME280;22478;51.740;-1.314;2023-03-12T02:39:43;99323.86;;;1.39;100.00
36454;BME280;22478;51.740;-1.314;2023-03-12T02:42:12;99322.65;;;2.21;100.00
36454;BME280;22478;51.740;-1.314;2023-03-12T02:44:40;99324.74;;;1.64;100.00
36454;BME280;22478;51.740;-1.314;2023-03-12T02:47:07;99316.16;;;2.95;100.00
36454;BME280;22478;51.740;-1.314;2023-03-12T02:49:35;99318.83;;;2.17;100.00
36454;BME280;22478;51.740;-1.314;2023-03-12T02:52:03;99319.71;;;1.62;100.00
36454;BME280;22478;51.740;-1.314;2023-03-12T02:54:30;99308.49;;;3.06;100.00
36454;BME280;22478;51.740;-1.314;2023-03-12T02:56:58;99311.18;;;2.34;100.00
36454;BME280;22478;51.740;-1.314;2023-03-12T02:59:26;99307.86;;;2.77;100.00
36454;BME280;22478;51.740;-1.314;2023-03-12T03:01:55;99305.29;;;2.01;100.00
36454;BME280;22478;51.740;-1.314;2023-03-12T03:04:26;99307.27;;;2.07;100.00
36454;BME280;22478;51.740;-1.314;2023-03-12T03:06:54;99292.54;;;4.11;100.00
36454;BME280;22478;51.740;-1.314;2023-03-12T03:09:23;99316.27;;;0.73;100.00
36454;BME280;22478;51.740;-1.314;2023-03-12T03:11:50;99321.39;;;1.81;100.00
36454;BME280;22478;51.740;-1.314;2023-03-12T03:14:18;99317.00;;;3.95;100.00
36454;BME280;22478;51.740;-1.314;2023-03-12T03:16:45;99321.42;;;2.19;100.00
36454;BME280;22478;51.740;-1.314;2023-03-12T03:19:12;99321.50;;;2.40;100.00
36454;BME280;22478;51.740;-1.314;2023-03-12T03:21:40;99320.87;;;2.96;100.00
36454;BME280;22478;51.740;-1.314;2023-03-12T03:24:08;99345.84;;;1.68;100.00
36454;BME280;22478;51.740;-1.314;2023-03-12T03:26:35;99347.42;;;3.85;100.00
36454;BME280;22478;51.740;-1.314;2023-03-12T03:29:03;99348.03;;;3.80;100.00
36454;BME280;22478;51.740;-1.314;2023-03-12T03:31:30;99358.60;;;2.86;100.00
36454;BME280;22478;51.740;-1.314;2023-03-12T03:33:57;99358.02;;;2.37;100.00
36454;BME280;22478;51.740;-1.314;2023-03-12T03:36:25;99352.46;;;3.29;100.00
36454;BME280;22478;51.740;-1.314;2023-03-12T03:38:53;99351.75;;;2.62;100.00
36454;BME280;22478;51.740;-1.314;2023-03-12T03:41:20;99367.79;;;2.82;100.00
36454;BME280;22478;51.740;-1.314;2023-03-12T03:43:48;99377.94;;;2.83;100.00
36454;BME280;22478;51.740;-1.314;2023-03-12T03:46:15;99391.94;;;1.23;100.00
36454;BME280;22478;51.740;-1.314;2023-03-12T03:48:42;99405.31;;;-0.02;100.00
36454;BME280;22478;51.740;-1.314;2023-03-12T03:51:10;99406.03;;;1.38;100.00
36454;BME280;22478;51.740;-1.314;2023-03-12T03:53:38;99410.00;;;0.17;100.00
36454;BME280;22478;51.740;-1.314;2023-03-12T03:56:06;99409.52;;;-0.42;100.00
36454;BME280;22478;51.740;-1.314;2023-03-12T03:58:34;99406.85;;;1.16;100.00
36454;BME280;22478;51.740;-1.314;2023-03-12T04:01:01;99407.85;;;1.24;100.00
36454;BME280;22478;51.740;-1.314;2023-03-12T04:03:28;99401.12;;;0.63;100.00
36454;BME280;22478;51.740;-1.314;2023-03-12T04:05:57;99396.05;;;1.06;100.00
36454;BME280;22478;51.740;-1.314;2023-03-12T04:08:25;99398.71;;;0.47;100.00
36454;BME280;22478;51.740;-1.314;2023-03-12T04:10:52;99412.52;;;-0.02;100.00
36454;BME280;22478;51.740;-1.314;2023-03-12T04:13:21;99408.35;;;0.08;100.00
36454;BME280;22478;51.740;-1.314;2023-03-12T04:15:50;99416.28;;;0.41;100.00
36454;BME280;22478;51.740;-1.314;2023-03-12T04:18:19;99415.24;;;-0.03;100.00
36454;BME280;22478;51.740;-1.314;2023-03-12T04:20:46;99427.35;;;-0.88;100.00
36454;BME280;22478;51.740;-1.314;2023-03-12T04:23:14;99428.62;;;1.61;100.00
36454;BME280;22478;51.740;-1.314;2023-03-12T04:25:41;99428.89;;;1.19;100.00
36454;BME280;22478;51.740;-1.314;2023-03-12T04:28:08;99423.77;;;0.77;100.00
36454;BME280;22478;51.740;-1.314;2023-03-12T04:30:36;99418.42;;;1.11;100.00
36454;BME280;22478;51.740;-1.314;2023-03-12T04:33:03;99430.68;;;0.13;100.00
36454;BME280;22478;51.740;-1.314;2023-03-12T04:35:31;99439.78;;;-0.14;100.00
36454;BME280;22478;51.740;-1.314;2023-03-12T04:37:59;99438.41;;;1.35;100.00
36454;BME280;22478;51.740;-1.314;2023-03-12T04:40:27;99439.15;;;-0.40;100.00
36454;BME280;22478;51.740;-1.314;2023-03-12T04:42:54;99445.27;;;-0.52;100.00
36454;BME280;22478;51.740;-1.314;2023-03-12T04:45:21;99446.92;;;0.80;100.00
36454;BME280;22478;51.740;-1.314;2023-03-12T04:47:48;99442.35;;;0.76;100.00
36454;BME280;22478;51.740;-1.314;2023-03-12T04:50:16;99437.21;;;1.42;100.00
36454;BME280;22478;51.740;-1.314;2023-03-12T04:52:44;99453.54;;;0.06;100.00
36454;BME280;22478;51.740;-1.314;2023-03-12T04:55:11;99462.83;;;0.28;100.00
36454;BME280;22478;51.740;-1.314;2023-03-12T04:57:38;99467.49;;;0.40;100.00
36454;BME280;22478;51.740;-1.314;2023-03-12T05:00:06;99453.35;;;0.73;100.00
36454;BME280;22478;51.740;-1.314;2023-03-12T05:02:33;99445.93;;;2.42;100.00
36454;BME280;22478;51.740;-1.314;2023-03-12T05:05:02;99445.01;;;1.78;100.00
36454;BME280;22478;51.740;-1.314;2023-03-12T05:07:30;99459.92;;;0.87;100.00
36454;BME280;22478;51.740;-1.314;2023-03-12T05:09:56;99483.31;;;0.03;100.00
36454;BME280;22478;51.740;-1.314;2023-03-12T05:12:24;99478.36;;;-0.42;100.00
36454;BME280;22478;51.740;-1.314;2023-03-12T05:14:51;99476.72;;;1.82;100.00
36454;BME280;22478;51.740;-1.314;2023-03-12T05:17:19;99474.93;;;-0.03;100.00
36454;BME280;22478;51.740;-1.314;2023-03-12T05:19:46;99457.25;;;2.41;100.00
36454;BME280;22478;51.740;-1.314;2023-03-12T05:22:14;99457.56;;;0.77;100.00
36454;BME280;22478;51.740;-1.314;2023-03-12T05:24:41;99451.73;;;0.86;100.00
36454;BME280;22478;51.740;-1.314;2023-03-12T05:27:09;99453.26;;;2.08;100.00
36454;BME280;22478;51.740;-1.314;2023-03-12T05:29:36;99452.10;;;2.69;100.00
36454;BME280;22478;51.740;-1.314;2023-03-12T05:32:04;99450.64;;;3.60;100.00
36454;BME280;22478;51.740;-1.314;2023-03-12T05:34:32;99461.34;;;1.05;100.00
36454;BME280;22478;51.740;-1.314;2023-03-12T05:36:59;99455.20;;;1.76;100.00
36454;BME280;22478;51.740;-1.314;2023-03-12T05:39:27;99468.77;;;0.39;100.00
36454;BME280;22478;51.740;-1.314;2023-03-12T05:41:54;99463.21;;;1.44;100.00
36454;BME280;22478;51.740;-1.314;2023-03-12T05:44:21;99461.45;;;3.14;100.00
36454;BME280;22478;51.740;-1.314;2023-03-12T05:46:49;99463.19;;;2.06;100.00
36454;BME280;22478;51.740;-1.314;2023-03-12T05:49:17;99456.45;;;3.15;100.00
36454;BME280;22478;51.740;-1.314;2023-03-12T05:51:46;99451.43;;;2.56;100.00
36454;BME280;22478;51.740;-1.314;2023-03-12T05:54:13;99462.23;;;0.37;100.00
36454;BME280;22478;51.740;-1.314;2023-03-12T05:56:42;99441.56;;;4.02;100.00
36454;BME280;22478;51.740;-1.314;2023-03-12T05:59:09;99444.84;;;3.23;100.00
36454;BME280;22478;51.740;-1.314;2023-03-12T06:01:36;99449.55;;;2.57;100.00
36454;BME280;22478;51.740;-1.314;2023-03-12T06:04:04;99465.40;;;0.50;100.00
36454;BME280;22478;51.740;-1.314;2023-03-12T06:06:33;99453.27;;;3.30;100.00
36454;BME280;22478;51.740;-1.314;2023-03-12T06:09:01;99455.95;;;3.95;100.00
36454;BME280;22478;51.740;-1.314;2023-03-12T06:11:28;99454.51;;;4.31;100.00
36454;BME280;22478;51.740;-1.314;2023-03-12T06:13:56;99464.39;;;3.76;100.00
36454;BME280;22478;51.740;-1.314;2023-03-12T06:16:25;99479.35;;;2.17;100.00
36454;BME280;22478;51.740;-1.314;2023-03-12T06:18:54;99486.32;;;2.25;100.00
36454;BME280;22478;51.740;-1.314;2023-03-12T06:21:24;99494.55;;;1.57;100.00
36454;BME280;22478;51.740;-1.314;2023-03-12T06:23:53;99503.64;;;2.68;100.00
36454;BME280;22478;51.740;-1.314;2023-03-12T06:26:21;99514.27;;;1.08;100.00
36454;BME280;22478;51.740;-1.314;2023-03-12T06:28:50;99516.59;;;3.05;100.00
36454;BME280;22478;51.740;-1.314;2023-03-12T06:31:18;99527.55;;;1.70;100.00
36454;BME280;22478;51.740;-1.314;2023-03-12T06:33:47;99523.58;;;3.21;100.00
36454;BME280;22478;51.740;-1.314;2023-03-12T06:36:14;99534.85;;;1.52;100.00
36454;BME280;22478;51.740;-1.314;2023-03-12T06:38:42;99526.22;;;2.10;100.00
36454;BME280;22478;51.740;-1.314;2023-03-12T06:41:12;99538.42;;;0.34;100.00
36454;BME280;22478;51.740;-1.314;2023-03-12T06:43:40;99532.27;;;1.64;100.00
36454;BME280;22478;51.740;-1.314;2023-03-12T06:46:11;99521.59;;;2.28;100.00
36454;BME280;22478;51.740;-1.314;2023-03-12T06:48:39;99502.71;;;3.52;100.00
36454;BME280;22478;51.740;-1.314;2023-03-12T06:51:06;99493.53;;;0.94;100.00
36454;BME280;22478;51.740;-1.314;2023-03-12T06:53:35;99496.77;;;1.29;100.00
36454;BME280;22478;51.740;-1.314;2023-03-12T06:56:03;99507.06;;;0.98;100.00
36454;BME280;22478;51.740;-1.314;2023-03-12T06:58:31;99509.39;;;0.58;100.00
36454;BME280;22478;51.740;-1.314;2023-03-12T07:00:58;99497.29;;;1.61;100.00
36454;BME280;22478;51.740;-1.314;2023-03-12T07:03:26;99502.49;;;1.09;100.00
36454;BME280;22478;51.740;-1.314;2023-03-12T07:05:55;99508.05;;;1.02;100.00
36454;BME280;22478;51.740;-1.314;2023-03-12T07:08:25;99496.61;;;2.09;100.00
36454;BME280;22478;51.740;-1.314;2023-03-12T07:10:52;99493.52;;;1.26;100.00
36454;BME280;22478;51.740;-1.314;2023-03-12T07:13:19;99491.79;;;1.91;100.00
36454;BME280;22478;51.740;-1.314;2023-03-12T07:15:47;99491.02;;;3.90;100.00
36454;BME280;22478;51.740;-1.314;2023-03-12T07:18:14;99500.45;;;2.71;100.00
36454;BME280;22478;51.740;-1.314;2023-03-12T07:20:43;99505.81;;;1.88;100.00
36454;BME280;22478;51.740;-1.314;2023-03-12T07:23:10;99522.74;;;1.73;100.00
36454;BME280;22478;51.740;-1.314;2023-03-12T07:25:39;99531.19;;;1.11;100.00
36454;BME280;22478;51.740;-1.314;2023-03-12T07:28:07;99531.40;;;-0.19;100.00
36454;BME280;22478;51.740;-1.314;2023-03-12T07:30:35;99517.88;;;1.33;100.00
36454;BME280;22478;51.740;-1.314;2023-03-12T07:33:03;99528.92;;;1.06;100.00
36454;BME280;22478;51.740;-1.314;2023-03-12T07:35:31;99535.76;;;1.76;100.00
36454;BME280;22478;51.740;-1.314;2023-03-12T07:37:59;99533.00;;;0.50;100.00
36454;BME280;22478;51.740;-1.314;2023-03-12T07:40:27;99531.32;;;2.70;100.00
36454;BME280;22478;51.740;-1.314;2023-03-12T07:42:54;99527.48;;;1.24;100.00
36454;BME280;22478;51.740;-1.314;2023-03-12T07:45:22;99541.12;;;1.82;100.00
36454;BME280;22478;51.740;-1.314;2023-03-12T07:47:50;99526.01;;;2.98;100.00
36454;BME280;22478;51.740;-1.314;2023-03-12T07:50:17;99538.93;;;0.68;100.00
36454;BME280;22478;51.740;-1.314;2023-03-12T07:52:45;99532.77;;;0.56;100.00
36454;BME280;22478;51.740;-1.314;2023-03-12T07:55:12;99527.63;;;3.37;100.00
36454;BME280;22478;51.740;-1.314;2023-03-12T07:57:40;99523.53;;;4.27;100.00
36454;BME280;22478;51.740;-1.314;2023-03-12T08:00:08;99521.35;;;2.25;100.00
36454;BME280;22478;51.740;-1.314;2023-03-12T08:02:35;99518.87;;;3.56;100.00
36454;BME280;22478;51.740;-1.314;2023-03-12T08:05:02;99525.02;;;4.33;100.00
36454;BME280;22478;51.740;-1.314;2023-03-12T08:07:32;99532.45;;;2.02;100.00
36454;BME280;22478;51.740;-1.314;2023-03-12T08:10:00;99524.25;;;4.13;100.00
36454;BME280;22478;51.740;-1.314;2023-03-12T08:12:27;99528.64;;;1.44;100.00
36454;BME280;22478;51.740;-1.314;2023-03-12T08:14:55;99518.91;;;5.14;100.00
36454;BME280;22478;51.740;-1.314;2023-03-12T08:17:22;99520.61;;;3.40;100.00
36454;BME280;22478;51.740;-1.314;2023-03-12T08:19:49;99517.98;;;4.77;100.00
36454;BME280;22478;51.740;-1.314;2023-03-12T08:22:16;99532.70;;;2.04;100.00
36454;BME280;22478;51.740;-1.314;2023-03-12T08:24:44;99538.91;;;2.44;100.00
36454;BME280;22478;51.740;-1.314;2023-03-12T08:27:12;99542.42;;;2.83;100.00
36454;BME280;22478;51.740;-1.314;2023-03-12T08:29:40;99550.66;;;1.19;100.00
36454;BME280;22478;51.740;-1.314;2023-03-12T08:32:08;99552.42;;;2.92;100.00
36454;BME280;22478;51.740;-1.314;2023-03-12T08:34:35;99555.24;;;1.89;100.00
36454;BME280;22478;51.740;-1.314;2023-03-12T08:37:03;99549.46;;;3.59;100.00
36454;BME280;22478;51.740;-1.314;2023-03-12T08:39:32;99543.59;;;1.92;100.00
36454;BME280;22478;51.740;-1.314;2023-03-12T08:41:59;99547.28;;;2.81;100.00
36454;BME280;22478;51.740;-1.314;2023-03-12T08:44:27;99558.39;;;2.97;100.00
36454;BME280;22478;51.740;-1.314;2023-03-12T08:46:54;99566.53;;;2.23;100.00
36454;BME280;22478;51.740;-1.314;2023-03-12T08:49:22;99566.46;;;0.52;100.00
36454;BME280;22478;51.740;-1.314;2023-03-12T08:51:49;99563.92;;;2.58;100.00
36454;BME280;22478;51.740;-1.314;2023-03-12T08:54:17;99552.06;;;2.36;100.00
36454;BME280;22478;51.740;-1.314;2023-03-12T08:56:48;99551.13;;;2.37;100.00
36454;BME280;22478;51.740;-1.314;2023-03-12T08:59:16;99558.15;;;3.10;100.00
36454;BME280;22478;51.740;-1.314;2023-03-12T09:01:43;99556.30;;;3.03;100.00
36454;BME280;22478;51.740;-1.314;2023-03-12T09:04:11;99556.75;;;2.58;100.00
36454;BME280;22478;51.740;-1.314;2023-03-12T09:06:38;99553.65;;;2.72;100.00
36454;BME280;22478;51.740;-1.314;2023-03-12T09:09:05;99550.99;;;3.19;100.00
36454;BME280;22478;51.740;-1.314;2023-03-12T09:11:34;99537.76;;;3.04;100.00
36454;BME280;22478;51.740;-1.314;2023-03-12T09:14:02;99540.88;;;2.11;100.00
36454;BME280;22478;51.740;-1.314;2023-03-12T09:16:30;99535.03;;;2.86;100.00
36454;BME280;22478;51.740;-1.314;2023-03-12T09:18:57;99533.51;;;1.95;100.00
36454;BME280;22478;51.740;-1.314;2023-03-12T09:21:24;99538.02;;;1.66;100.00
36454;BME280;22478;51.740;-1.314;2023-03-12T09:23:51;99521.69;;;2.22;100.00
36454;BME280;22478;51.740;-1.314;2023-03-12T09:26:19;99521.79;;;3.46;100.00
36454;BME280;22478;51.740;-1.314;2023-03-12T09:28:46;99529.28;;;3.49;100.00
36454;BME280;22478;51.740;-1.314;2023-03-12T09:31:13;99511.33;;;3.73;100.00
36454;BME280;22478;51.740;-1.314;2023-03-12T09:33:40;99521.00;;;3.34;100.00
36454;BME280;22478;51.740;-1.314;2023-03-12T09:36:09;99520.71;;;4.06;100.00
36454;BME280;22478;51.740;-1.314;2023-03-12T09:38:36;99521.77;;;4.67;100.00
36454;BME280;22478;51.740;-1.314;2023-03-12T09:41:04;99520.88;;;3.43;100.00
36454;BME280;22478;51.740;-1.314;2023-03-12T09:43:36;99518.45;;;4.10;100.00
36454;BME280;22478;51.740;-1.314;2023-03-12T09:46:11;99506.25;;;5.19;100.00
36454;BME280;22478;51.740;-1.314;2023-03-12T09:48:39;99513.45;;;5.48;100.00
36454;BME280;22478;51.740;-1.314;2023-03-12T09:51:14;99509.53;;;4.10;100.00
36454;BME280;22478;51.740;-1.314;2023-03-12T09:53:45;99498.32;;;4.55;100.00
36454;BME280;22478;51.740;-1.314;2023-03-12T09:56:16;99501.91;;;3.76;100.00
36454;BME280;22478;51.740;-1.314;2023-03-12T09:58:44;99497.30;;;4.18;100.00
36454;BME280;22478;51.740;-1.314;2023-03-12T10:01:25;99482.38;;;5.59;100.00
36454;BME280;22478;51.740;-1.314;2023-03-12T10:04:04;99482.11;;;4.73;100.00
36454;BME280;22478;51.740;-1.314;2023-03-12T10:06:36;99481.98;;;5.65;100.00
36454;BME280;22478;51.740;-1.314;2023-03-12T10:09:19;99478.62;;;5.64;100.00
36454;BME280;22478;51.740;-1.314;2023-03-12T10:11:56;99483.89;;;5.59;100.00
36454;BME280;22478;51.740;-1.314;2023-03-12T10:14:34;99486.42;;;4.34;100.00
36454;BME280;22478;51.740;-1.314;2023-03-12T10:17:16;99484.95;;;4.65;100.00
36454;BME280;22478;51.740;-1.314;2023-03-12T10:19:56;99482.68;;;5.97;100.00
36454;BME280;22478;51.740;-1.314;2023-03-12T10:22:36;99476.47;;;6.57;100.00
36454;BME280;22478;51.740;-1.314;2023-03-12T10:25:17;99478.55;;;3.84;100.00
36454;BME280;22478;51.740;-1.314;2023-03-12T10:27:48;99473.26;;;5.65;100.00
36454;BME280;22478;51.740;-1.314;2023-03-12T10:30:18;99481.30;;;3.56;100.00
36454;BME280;22478;51.740;-1.314;2023-03-12T10:32:48;99480.03;;;4.36;100.00
36454;BME280;22478;51.740;-1.314;2023-03-12T10:35:18;99476.53;;;3.52;100.00
36454;BME280;22478;51.740;-1.314;2023-03-12T10:37:47;99465.39;;;6.35;100.00
36454;BME280;22478;51.740;-1.314;2023-03-12T10:40:19;99458.87;;;6.04;100.00
36454;BME280;22478;51.740;-1.314;2023-03-12T10:42:48;99469.23;;;4.45;100.00
36454;BME280;22478;51.740;-1.314;2023-03-12T10:45:23;99470.11;;;4.80;100.00
36454;BME280;22478;51.740;-1.314;2023-03-12T10:47:55;99474.41;;;4.14;100.00
36454;BME280;22478;51.740;-1.314;2023-03-12T10:50:26;99470.07;;;5.88;100.00
36454;BME280;22478;51.740;-1.314;2023-03-12T10:53:12;99472.08;;;4.44;100.00
36454;BME280;22478;51.740;-1.314;2023-03-12T10:55:40;99463.52;;;7.38;100.00
36454;BME280;22478;51.740;-1.314;2023-03-12T10:58:21;99464.84;;;4.54;100.00
36454;BME280;22478;51.740;-1.314;2023-03-12T11:00:55;99461.92;;;6.22;100.00
36454;BME280;22478;51.740;-1.314;2023-03-12T11:03:23;99467.61;;;6.59;100.00
36454;BME280;22478;51.740;-1.314;2023-03-12T11:05:53;99457.22;;;6.56;100.00
36454;BME280;22478;51.740;-1.314;2023-03-12T11:08:23;99454.85;;;5.13;100.00
36454;BME280;22478;51.740;-1.314;2023-03-12T11:10:50;99456.00;;;5.79;100.00
36454;BME280;22478;51.740;-1.314;2023-03-12T11:13:24;99451.89;;;6.42;100.00
36454;BME280;22478;51.740;-1.314;2023-03-12T11:15:53;99441.42;;;6.03;100.00
36454;BME280;22478;51.740;-1.314;2023-03-12T11:18:24;99437.45;;;6.82;100.00
36454;BME280;22478;51.740;-1.314;2023-03-12T11:20:53;99431.72;;;5.90;100.00
36454;BME280;22478;51.740;-1.314;2023-03-12T11:23:23;99441.89;;;4.55;100.00
36454;BME280;22478;51.740;-1.314;2023-03-12T11:25:53;99435.83;;;3.68;100.00
36454;BME280;22478;51.740;-1.314;2023-03-12T11:28:24;99426.61;;;5.57;100.00
36454;BME280;22478;51.740;-1.314;2023-03-12T11:30:56;99426.95;;;4.56;100.00
36454;BME280;22478;51.740;-1.314;2023-03-12T11:33:24;99419.79;;;6.18;100.00
36454;BME280;22478;51.740;-1.314;2023-03-12T11:36:02;99424.79;;;4.60;100.00
36454;BME280;22478;51.740;-1.314;2023-03-12T11:38:39;99411.13;;;5.07;100.00
36454;BME280;22478;51.740;-1.314;2023-03-12T11:41:18;99410.47;;;6.58;100.00
36454;BME280;22478;51.740;-1.314;2023-03-12T11:44:01;99414.23;;;6.14;100.00
36454;BME280;22478;51.740;-1.314;2023-03-12T11:46:45;99412.15;;;6.55;100.00
36454;BME280;22478;51.740;-1.314;2023-03-12T11:49:25;99403.19;;;6.57;100.00
36454;BME280;22478;51.740;-1.314;2023-03-12T11:51:58;99397.95;;;6.39;100.00
36454;BME280;22478;51.740;-1.314;2023-03-12T11:55:41;99396.08;;;5.38;100.00
36454;BME280;22478;51.740;-1.314;2023-03-12T11:58:26;99396.47;;;7.46;100.00
36454;BME280;22478;51.740;-1.314;2023-03-12T12:01:02;99402.72;;;4.99;100.00
36454;BME280;22478;51.740;-1.314;2023-03-12T12:03:46;99397.01;;;7.49;100.00
36454;BME280;22478;51.740;-1.314;2023-03-12T12:06:22;99393.24;;;6.73;100.00
36454;BME280;22478;51.740;-1.314;2023-03-12T12:09:04;99398.85;;;5.97;100.00
36454;BME280;22478;51.740;-1.314;2023-03-12T12:11:41;99400.60;;;6.55;100.00
36454;BME280;22478;51.740;-1.314;2023-03-12T12:14:17;99399.38;;;5.94;100.00
36454;BME280;22478;51.740;-1.314;2023-03-12T12:16:57;99397.83;;;6.07;100.00
36454;BME280;22478;51.740;-1.314;2023-03-12T12:19:36;99399.37;;;5.34;100.00
36454;BME280;22478;51.740;-1.314;2023-03-12T12:22:19;99385.05;;;6.93;100.00
36454;BME280;22478;51.740;-1.314;2023-03-12T12:25:09;99391.61;;;5.53;100.00
36454;BME280;22478;51.740;-1.314;2023-03-12T12:27:45;99387.93;;;7.08;100.00
36454;BME280;22478;51.740;-1.314;2023-03-12T12:30:25;99389.51;;;6.98;100.00
36454;BME280;22478;51.740;-1.314;2023-03-12T12:33:03;99393.50;;;6.74;100.00
36454;BME280;22478;51.740;-1.314;2023-03-12T12:35:36;99382.66;;;7.74;100.00
36454;BME280;22478;51.740;-1.314;2023-03-12T12:38:09;99377.03;;;8.89;100.00
36454;BME280;22478;51.740;-1.314;2023-03-12T12:40:41;99388.50;;;6.12;100.00
36454;BME280;22478;51.740;-1.314;2023-03-12T12:43:20;99383.44;;;4.52;100.00
36454;BME280;22478;51.740;-1.314;2023-03-12T12:45:51;99373.13;;;7.06;100.00
36454;BME280;22478;51.740;-1.314;2023-03-12T12:48:23;99366.21;;;8.01;100.00
36454;BME280;22478;51.740;-1.314;2023-03-12T12:50:53;99359.14;;;7.58;100.00
36454;BME280;22478;51.740;-1.314;2023-03-12T12:53:24;99364.34;;;7.97;100.00
36454;BME280;22478;51.740;-1.314;2023-03-12T12:56:01;99359.31;;;8.03;100.00
36454;BME280;22478;51.740;-1.314;2023-03-12T12:58:57;99356.97;;;8.02;100.00
36454;BME280;22478;51.740;-1.314;2023-03-12T13:01:27;99351.49;;;6.58;100.00
36454;BME280;22478;51.740;-1.314;2023-03-12T13:04:00;99351.29;;;7.17;100.00